Time;durP1;ratioP1;P1;durP2;ratioP2;P2;SDS_P1;SDS_P2;PMS_P1;PMS_P2;Temp;Humidity;BMP_temperature;BMP_pressure;BME280_temperature;BME280_humidity;BME280_pressure;Samples;Min_cycle;Max_cycle;Signal;HPM_P1;HPM_P2
2023/05/26 00:02:50;;;;;;;2.90;2.70;;;;;;;22.00;50.06;95138.00;5981347;29;109010;-67
2023/05/26 00:05:54;;;;;;;3.90;2.50;;;;;;;21.97;50.21;95140.47;5941805;29;109256;-68
2023/05/26 00:08:57;;;;;;;3.83;3.03;;;;;;;21.97;50.16;95132.50;5952536;29;109105;-67
2023/05/26 00:12:02;;;;;;;3.67;3.27;;;;;;;21.97;50.33;95137.81;5970100;29;108899;-67
2023/05/26 00:15:06;;;;;;;4.03;2.83;;;;;;;21.97;49.80;95141.28;5979098;29;109449;-67
2023/05/26 00:18:09;;;;;;;2.73;2.53;;;;;;;21.95;49.91;95132.00;5986517;29;111213;-67
2023/05/26 00:21:13;;;;;;;3.93;2.90;;;;;;;21.95;49.63;95124.00;5991383;29;109761;-67
2023/05/26 00:24:16;;;;;;;3.27;2.97;;;;;;;21.90;49.56;95127.59;5996262;29;109700;-67
2023/05/26 00:27:20;;;;;;;6.93;2.63;;;;;;;21.91;49.52;95118.50;5992308;29;109349;-67
2023/05/26 00:30:23;;;;;;;3.47;2.33;;;;;;;21.92;49.60;95116.63;5977617;29;109107;-67
2023/05/26 00:33:27;;;;;;;3.00;2.47;;;;;;;21.89;49.49;95120.69;5974241;29;109142;-67
2023/05/26 00:36:30;;;;;;;3.60;2.70;;;;;;;21.89;49.89;95128.69;5972621;29;109411;-67
2023/05/26 00:39:33;;;;;;;2.60;2.40;;;;;;;21.88;49.64;95126.31;5967738;29;112179;-67
2023/05/26 00:42:38;;;;;;;2.60;2.40;;;;;;;21.87;49.63;95122.09;5964880;29;109217;-67
2023/05/26 00:45:41;;;;;;;2.37;2.17;;;;;;;21.87;49.22;95122.88;5961989;29;108613;-68
2023/05/26 00:48:45;;;;;;;2.70;2.47;;;;;;;21.86;49.22;95129.28;5971545;29;109264;-64
2023/05/26 00:51:48;;;;;;;3.23;2.20;;;;;;;21.85;49.07;95122.41;5966493;29;109068;-66
2023/05/26 00:54:51;;;;;;;1.90;1.80;;;;;;;21.85;49.40;95129.59;5972225;29;108961;-67
2023/05/26 00:57:57;;;;;;;2.47;2.10;;;;;;;21.84;49.15;95130.66;5979350;29;109468;-67
2023/05/26 01:01:00;;;;;;;2.60;2.20;;;;;;;21.83;49.05;95137.06;5976544;29;109326;-67
2023/05/26 01:04:04;;;;;;;2.53;2.33;;;;;;;21.82;48.81;95125.63;5978577;29;109171;-68
2023/05/26 01:07:09;;;;;;;2.33;2.00;;;;;;;21.81;49.09;95130.16;5991754;29;109262;-67
2023/05/26 01:10:12;;;;;;;3.30;3.00;;;;;;;21.79;48.82;95137.66;5995336;29;112423;-67
2023/05/26 01:13:24;;;;;;;2.50;2.30;;;;;;;21.80;48.87;95136.56;5986886;29;110288;-70
2023/05/26 01:16:34;;;;;;;2.37;2.17;;;;;;;21.81;48.69;95135.47;5955834;29;108879;-72
2023/05/26 01:20:01;;;;;;;4.63;2.30;;;;;;;21.80;48.64;95138.44;5950090;29;109138;-72
2023/05/26 01:23:22;;;;;;;4.00;2.20;;;;;;;21.80;48.55;95143.78;5983428;29;108666;-72
2023/05/26 01:26:38;;;;;;;4.03;2.20;;;;;;;21.77;48.49;95139.06;5971191;29;109321;-73
2023/05/26 01:29:43;;;;;;;2.10;1.90;;;;;;;21.77;48.68;95133.72;5973087;29;109061;-73
2023/05/26 01:32:47;;;;;;;2.10;1.90;;;;;;;21.76;48.21;95127.59;5973297;29;109117;-72
2023/05/26 01:35:50;;;;;;;1.77;1.67;;;;;;;21.78;48.25;95132.63;5992372;29;109355;-68
2023/05/26 01:38:53;;;;;;;2.00;1.80;;;;;;;21.74;48.23;95134.31;5966001;29;109227;-72
2023/05/26 01:42:06;;;;;;;2.60;2.40;;;;;;;21.75;48.19;95127.91;5987833;29;109180;-72
2023/05/26 01:45:24;;;;;;;3.20;2.10;;;;;;;21.73;48.14;95133.53;5994564;29;109243;-73
2023/05/26 01:48:30;;;;;;;2.30;2.10;;;;;;;21.76;48.22;95132.16;5960876;29;109159;-72
2023/05/26 01:51:35;;;;;;;1.93;1.83;;;;;;;21.73;48.23;95143.41;5972119;29;109877;-73
2023/05/26 01:54:43;;;;;;;1.90;1.80;;;;;;;21.75;48.07;95143.88;5974763;29;109235;-72
2023/05/26 01:57:47;;;;;;;4.67;2.67;;;;;;;21.75;48.45;95131.38;5971364;29;109272;-72
2023/05/26 02:00:52;;;;;;;2.50;1.97;;;;;;;21.75;48.38;95136.69;5975710;29;109310;-72
2023/05/26 02:03:56;;;;;;;4.07;1.90;;;;;;;21.74;48.75;95150.31;5979187;29;109107;-72
2023/05/26 02:07:02;;;;;;;4.03;2.30;;;;;;;21.74;49.29;95143.09;5986901;29;109144;-71
2023/05/26 02:10:07;;;;;;;2.70;1.87;;;;;;;21.70;47.96;95134.16;5945355;29;109116;-70
2023/05/26 02:13:10;;;;;;;4.97;2.20;;;;;;;21.70;48.55;95138.69;5988331;29;109030;-72
2023/05/26 02:16:14;;;;;;;3.63;1.97;;;;;;;21.69;48.28;95143.22;5993994;29;109065;-70
2023/05/26 02:19:18;;;;;;;2.80;2.00;;;;;;;21.69;47.96;95143.22;5956357;29;110105;-72
2023/05/26 02:22:21;;;;;;;2.37;1.63;;;;;;;21.67;47.60;95140.06;5954585;29;109019;-72
2023/05/26 02:25:24;;;;;;;3.67;2.03;;;;;;;21.67;48.12;95147.25;5970417;29;109206;-72
2023/05/26 02:28:27;;;;;;;4.73;2.27;;;;;;;21.66;47.93;95145.69;5986161;29;109373;-72
2023/05/26 02:31:34;;;;;;;1.73;1.63;;;;;;;21.64;47.66;95151.31;5971391;29;109014;-72
2023/05/26 02:34:44;;;;;;;2.70;1.93;;;;;;;21.64;47.59;95147.84;5965383;29;109414;-73
2023/05/26 02:37:47;;;;;;;2.20;2.00;;;;;;;21.63;47.46;95146.28;5976420;29;109130;-73
2023/05/26 02:40:51;;;;;;;2.10;1.90;;;;;;;21.64;47.95;95145.19;5984635;29;109157;-69
2023/05/26 02:43:54;;;;;;;2.83;2.00;;;;;;;21.63;47.90;95151.63;5969942;29;109918;-73
2023/05/26 02:46:58;;;;;;;2.00;1.80;;;;;;;21.63;47.19;95146.28;5965483;29;110629;-73
2023/05/26 02:50:01;;;;;;;2.23;2.00;;;;;;;21.62;47.46;95139.38;5991994;29;110308;-73
2023/05/26 02:53:04;;;;;;;2.20;1.80;;;;;;;21.61;47.07;95141.25;5988765;29;109210;-72
2023/05/26 02:56:08;;;;;;;2.50;1.97;;;;;;;21.60;47.41;95144.22;5943010;29;109879;-72
2023/05/26 02:59:11;;;;;;;2.23;2.00;;;;;;;21.59;47.10;95143.44;5965886;29;109888;-73
2023/05/26 03:02:16;;;;;;;3.13;1.90;;;;;;;21.61;47.51;95151.13;5981911;29;109254;-72
2023/05/26 03:05:19;;;;;;;2.60;1.80;;;;;;;21.59;47.52;95154.09;5970596;29;109582;-71
2023/05/26 03:08:22;;;;;;;3.27;2.53;;;;;;;21.58;47.25;95151.72;5968931;29;109092;-71
2023/05/26 03:11:25;;;;;;;2.30;2.10;;;;;;;21.59;47.63;95154.09;5971415;29;109049;-71
2023/05/26 03:14:28;;;;;;;3.13;2.57;;;;;;;21.60;46.98;95168.97;5975601;29;109354;-72
2023/05/26 03:17:33;;;;;;;3.00;2.80;;;;;;;21.56;47.00;95169.88;5977240;29;108651;-73
2023/05/26 03:20:36;;;;;;;3.70;2.57;;;;;;;21.58;47.16;95167.72;5959902;29;108911;-72
2023/05/26 03:23:39;;;;;;;4.60;4.10;;;;;;;21.59;47.34;95171.94;5988574;29;109313;-72
2023/05/26 03:26:42;;;;;;;4.63;4.23;;;;;;;21.58;47.26;95181.03;5990348;29;109206;-72
2023/05/26 03:29:46;;;;;;;5.77;3.03;;;;;;;21.58;47.70;95178.34;5975053;29;109179;-71
2023/05/26 03:32:50;;;;;;;4.60;2.80;;;;;;;21.59;47.81;95178.06;5978396;29;109105;-72
2023/05/26 03:35:53;;;;;;;4.37;3.97;;;;;;;21.62;48.12;95179.34;5970649;29;108922;-72
2023/05/26 03:38:56;;;;;;;7.63;4.03;;;;;;;21.61;47.49;95183.88;5976413;29;109297;-72
2023/05/26 03:42:00;;;;;;;7.33;4.70;;;;;;;21.63;48.23;95178.25;5959933;29;109656;-71
2023/05/26 03:45:03;;;;;;;19.70;17.63;;;;;;;21.66;48.81;95177.63;5981679;29;109087;-72
2023/05/26 03:48:12;;;;;;;14.87;13.33;;;;;;;21.64;49.52;95172.63;5981173;29;109430;-73
2023/05/26 03:51:15;;;;;;;34.80;27.23;;;;;;;21.54;47.87;95172.84;5985204;29;112154;-68
2023/05/26 03:54:18;;;;;;;17.27;13.63;;;;;;;21.48;47.74;95169.47;5942165;29;109058;-67
2023/05/26 03:57:21;;;;;;;10.43;9.50;;;;;;;21.39;47.37;95167.84;5959669;29;109991;-68
2023/05/26 04:00:27;;;;;;;9.37;8.47;;;;;;;21.34;47.97;95181.22;5967958;29;109225;-68
2023/05/26 04:03:32;;;;;;;12.93;6.50;;;;;;;21.36;47.56;95176.44;5974273;29;112178;-69
2023/05/26 04:06:37;;;;;;;6.53;5.70;;;;;;;21.37;47.56;95178.78;5965678;29;110537;-69
2023/05/26 04:09:40;;;;;;;7.37;6.40;;;;;;;21.35;47.76;95161.53;5978609;29;109104;-69
2023/05/26 04:12:43;;;;;;;7.00;4.50;;;;;;;21.25;48.08;95167.84;5995238;29;109169;-69
2023/05/26 04:15:46;;;;;;;6.67;4.23;;;;;;;21.26;47.63;95169.41;5986153;29;109080;-70
2023/05/26 04:18:51;;;;;;;9.90;5.17;;;;;;;21.44;48.43;95165.84;5981013;29;109429;-71
2023/05/26 04:21:54;;;;;;;21.50;8.17;;;;;;;21.53;49.65;95171.28;5965722;29;110128;-71
2023/05/26 04:24:57;;;;;;;20.50;8.33;;;;;;;21.58;49.65;95167.72;5982219;29;109112;-71
2023/05/26 04:28:02;;;;;;;26.60;9.27;;;;;;;21.64;50.02;95167.28;5972363;29;109830;-73
2023/05/26 04:31:08;;;;;;;47.43;11.37;;;;;;;21.69;54.76;95177.84;5981303;29;108850;-71
2023/05/26 04:34:13;;;;;;;43.60;10.73;;;;;;;21.69;54.62;95177.84;5976573;29;109165;-73
2023/05/26 04:37:16;;;;;;;61.93;12.47;;;;;;;21.68;55.94;95180.81;5982975;29;109112;-71
2023/05/26 04:40:19;;;;;;;39.77;9.97;;;;;;;21.75;56.10;95183.84;5961978;29;110220;-72
2023/05/26 04:43:23;;;;;;;25.60;7.67;;;;;;;21.74;56.56;95182.28;5994241;29;109108;-71
2023/05/26 04:46:28;;;;;;;33.93;7.80;;;;;;;21.74;55.49;95184.94;5966897;29;109962;-72
2023/05/26 04:49:33;;;;;;;50.47;10.40;;;;;;;21.73;55.33;95178.03;5970455;29;112157;-70
2023/05/26 04:52:36;;;;;;;46.23;10.47;;;;;;;21.75;53.94;95179.31;5966717;29;109097;-71
2023/05/26 04:55:41;;;;;;;33.27;8.70;;;;;;;21.71;52.35;95178.34;5958910;29;109401;-69
2023/05/26 04:58:44;;;;;;;70.80;13.30;;;;;;;21.71;52.74;95177.56;5963107;29;109078;-71
2023/05/26 05:01:47;;;;;;;69.83;12.37;;;;;;;21.64;52.89;95174.50;5975441;29;109075;-70
2023/05/26 05:04:52;;;;;;;57.23;12.67;;;;;;;21.65;52.93;95178.72;5974926;29;109101;-71
2023/05/26 05:07:55;;;;;;;61.97;12.20;;;;;;;21.65;52.94;95174.19;5972072;29;109895;-71
2023/05/26 05:10:58;;;;;;;74.33;14.07;;;;;;;21.69;53.02;95174.41;5970057;29;108769;-72
2023/05/26 05:14:01;;;;;;;87.13;15.70;;;;;;;21.79;57.01;95182.16;5952431;29;111959;-72
2023/05/26 05:17:04;;;;;;;91.13;13.57;;;;;;;21.79;55.53;95171.50;5977686;29;109665;-70
2023/05/26 05:20:10;;;;;;;71.73;14.50;;;;;;;21.82;60.83;95178.91;5965986;29;109079;-71
2023/05/26 05:23:19;;;;;;;81.33;15.10;;;;;;;21.80;60.28;95175.72;5951552;29;109141;-71
2023/05/26 05:26:23;;;;;;;94.13;17.23;;;;;;;21.84;60.55;95171.41;5973407;29;109264;-70
2023/05/26 05:29:26;;;;;;;61.87;12.17;;;;;;;21.86;60.70;95173.78;5967239;29;109112;-70
2023/05/26 05:32:29;;;;;;;80.33;13.93;;;;;;;21.90;60.45;95180.88;5972313;29;109090;-71
2023/05/26 05:35:34;;;;;;;58.40;13.70;;;;;;;21.95;59.08;95174.63;5961394;29;109128;-71
2023/05/26 05:38:37;;;;;;;63.37;15.63;;;;;;;22.02;58.61;95185.69;5978638;29;109123;-71
2023/05/26 05:41:40;;;;;;;63.03;13.73;;;;;;;22.00;58.23;95179.84;5994892;29;110292;-71
2023/05/26 05:44:43;;;;;;;49.53;11.33;;;;;;;22.05;56.90;95174.41;5981422;29;110139;-73
2023/05/26 05:47:46;;;;;;;44.30;11.20;;;;;;;22.06;57.41;95176.00;5959274;29;110058;-71
2023/05/26 05:50:50;;;;;;;66.43;14.40;;;;;;;22.06;56.54;95182.13;5966408;29;110426;-71
2023/05/26 05:53:53;;;;;;;58.87;13.13;;;;;;;22.05;55.81;95180.53;5965761;29;109091;-71
2023/05/26 05:56:57;;;;;;;53.67;13.27;;;;;;;22.06;55.39;95186.66;5966622;29;109087;-71
2023/05/26 06:00:00;;;;;;;19.30;9.70;;;;;;;21.68;53.46;95178.16;5944246;29;109158;-72
2023/05/26 06:03:04;;;;;;;28.83;9.00;;;;;;;21.79;55.40;95182.94;5973205;29;109253;-72
2023/05/26 06:06:10;;;;;;;36.47;9.97;;;;;;;22.02;54.98;95189.13;5979218;29;109093;-73
2023/05/26 06:09:13;;;;;;;32.50;10.97;;;;;;;22.17;54.35;95177.31;5965195;29;109103;-72
2023/05/26 06:12:16;;;;;;;49.23;10.87;;;;;;;22.21;54.09;95169.53;5986193;29;109633;-73
2023/05/26 06:15:19;;;;;;;36.13;9.93;;;;;;;22.23;54.49;95180.66;5978788;29;109208;-64
2023/05/26 06:18:22;;;;;;;31.60;9.40;;;;;;;22.17;54.03;95184.53;5971445;29;109470;-63
2023/05/26 06:21:28;;;;;;;26.90;10.10;;;;;;;22.20;53.88;95189.28;5960033;29;109548;-66
2023/05/26 06:24:31;;;;;;;20.80;8.03;;;;;;;22.20;53.21;95194.59;5971117;29;109503;-65
2023/05/26 06:27:34;;;;;;;21.23;7.43;;;;;;;22.23;53.25;95196.66;5971262;29;108679;-64
2023/05/26 06:30:39;;;;;;;15.20;7.30;;;;;;;22.26;53.00;95194.16;5970957;29;109708;-65
2023/05/26 06:33:42;;;;;;;14.37;7.03;;;;;;;22.29;53.23;95190.09;5960549;29;108994;-64
2023/05/26 06:36:46;;;;;;;13.13;7.00;;;;;;;22.31;52.68;95191.38;5971509;29;109101;-64
2023/05/26 06:39:50;;;;;;;11.90;7.17;;;;;;;22.36;52.46;95193.16;5971740;29;109024;-63
2023/05/26 06:42:53;;;;;;;12.17;6.60;;;;;;;22.39;52.51;95196.00;5967562;29;110096;-64
2023/05/26 06:45:56;;;;;;;10.40;7.23;;;;;;;22.38;51.76;95197.09;5966080;29;110082;-64
2023/05/26 06:48:59;;;;;;;10.77;6.70;;;;;;;22.38;52.69;95191.75;5970648;29;109407;-64
2023/05/26 06:52:04;;;;;;;11.30;6.57;;;;;;;22.33;52.21;95194.53;5971101;29;111787;-64
2023/05/26 06:55:07;;;;;;;13.23;6.80;;;;;;;22.39;52.09;95192.53;5960882;29;110022;-64
2023/05/26 06:58:11;;;;;;;8.80;6.70;;;;;;;22.41;52.05;95182.34;5970540;29;109499;-65
2023/05/26 07:01:14;;;;;;;10.50;7.30;;;;;;;22.47;51.54;95180.34;5970606;29;110083;-64
2023/05/26 07:04:17;;;;;;;9.13;6.60;;;;;;;22.49;51.70;95183.50;5970326;29;110031;-65
2023/05/26 07:07:21;;;;;;;8.23;7.47;;;;;;;22.49;51.53;95181.59;5960999;29;110187;-64
2023/05/26 07:10:24;;;;;;;9.53;6.53;;;;;;;22.54;51.36;95186.84;5970590;29;109302;-63
2023/05/26 07:13:28;;;;;;;7.83;6.67;;;;;;;22.58;51.62;95179.03;5970713;29;110220;-68
2023/05/26 07:16:31;;;;;;;8.57;6.70;;;;;;;22.63;51.49;95190.34;5970204;29;109101;-68
2023/05/26 07:19:34;;;;;;;7.53;6.90;;;;;;;22.65;50.99;95190.06;5959085;29;109217;-67
2023/05/26 07:22:38;;;;;;;8.57;7.13;;;;;;;22.70;50.90;95198.72;5974360;29;109124;-68
2023/05/26 07:25:41;;;;;;;11.10;6.73;;;;;;;22.74;51.34;95198.91;5977899;29;110134;-67
2023/05/26 07:28:46;;;;;;;15.77;7.17;;;;;;;22.80;50.67;95186.22;5972068;29;109127;-66
2023/05/26 07:31:49;;;;;;;34.43;10.23;;;;;;;22.84;50.71;95187.94;5975549;29;110099;-67
2023/05/26 07:34:52;;;;;;;46.57;12.10;;;;;;;22.86;50.78;95190.34;5977365;29;109155;-66
2023/05/26 07:37:57;;;;;;;42.87;12.43;;;;;;;22.91;51.18;95192.88;5977810;29;109228;-66
2023/05/26 07:41:00;;;;;;;44.63;11.40;;;;;;;22.92;50.63;95194.44;5967497;29;109232;-66
2023/05/26 07:44:03;;;;;;;28.57;9.83;;;;;;;22.92;50.65;95194.44;5977658;29;109233;-66
2023/05/26 07:47:07;;;;;;;40.80;9.67;;;;;;;22.98;51.06;95182.53;5977377;29;109677;-66
2023/05/26 07:50:10;;;;;;;39.47;10.70;;;;;;;23.00;50.61;95183.00;5977167;29;109080;-67
2023/05/26 07:53:15;;;;;;;34.63;12.37;;;;;;;23.04;51.04;95175.97;5967432;29;109201;-67
2023/05/26 07:56:18;;;;;;;56.10;15.93;;;;;;;23.06;51.03;95184.47;5977232;29;109263;-66
2023/05/26 07:59:21;;;;;;;65.13;17.27;;;;;;;23.03;50.97;95179.75;5977479;29;109119;-66
2023/05/26 08:02:24;;;;;;;67.60;16.83;;;;;;;22.98;51.13;95177.19;5972731;29;109109;-66
2023/05/26 08:05:27;;;;;;;56.30;15.40;;;;;;;22.89;51.08;95182.50;5972153;29;109644;-67
2023/05/26 08:08:32;;;;;;;50.03;15.83;;;;;;;22.83;51.23;95180.25;5977061;29;109225;-66
2023/05/26 08:11:35;;;;;;;48.87;13.70;;;;;;;22.81;51.17;95188.56;5977061;29;109121;-66
2023/05/26 08:14:38;;;;;;;40.73;13.97;;;;;;;22.86;51.09;95174.34;5967014;29;109103;-66
2023/05/26 08:17:41;;;;;;;45.60;14.53;;;;;;;22.88;51.30;95180.16;5977169;29;109407;-66
2023/05/26 08:20:45;;;;;;;34.83;12.40;;;;;;;22.91;50.91;95174.19;5976241;29;109128;-66
2023/05/26 08:23:49;;;;;;;27.57;12.87;;;;;;;22.96;51.27;95174.03;5976676;29;109143;-60
2023/05/26 08:26:52;;;;;;;28.50;12.77;;;;;;;22.95;51.25;95170.59;5967557;29;108972;-60
2023/05/26 08:29:56;;;;;;;30.10;12.00;;;;;;;22.97;50.66;95163.06;5977140;29;109138;-61
2023/05/26 08:32:59;;;;;;;19.93;10.60;;;;;;;23.00;50.65;95165.09;5975969;29;108943;-60
2023/05/26 08:36:02;;;;;;;90.33;21.70;;;;;;;23.07;50.70;95159.34;5973130;29;109217;-61
2023/05/26 08:39:07;;;;;;;140.47;29.40;;;;;;;23.09;50.61;95151.81;5961052;29;109385;-61
2023/05/26 08:42:15;;;;;;;147.85;30.77;;;;;;;23.16;50.53;95138.78;5971452;29;109132;-62
2023/05/26 08:45:20;;;;;;;136.90;29.37;;;;;;;23.18;50.88;95144.59;5971534;29;109075;-60
2023/05/26 08:48:23;;;;;;;114.20;25.67;;;;;;;23.19;50.30;95146.19;5962544;29;109136;-64
2023/05/26 08:51:28;;;;;;;107.60;23.53;;;;;;;23.23;50.41;95147.16;5971724;29;109120;-61
2023/05/26 08:54:33;;;;;;;93.97;21.03;;;;;;;23.19;50.51;95148.88;5972179;29;109177;-62
2023/05/26 08:57:38;;;;;;;92.93;21.87;;;;;;;23.21;50.24;95149.34;5972585;29;108992;-61
2023/05/26 09:00:42;;;;;;;60.93;18.80;;;;;;;23.22;50.41;95150.13;5963836;29;110191;-61
2023/05/26 09:03:45;;;;;;;70.27;18.70;;;;;;;23.22;50.25;95155.47;5972262;29;109121;-61
2023/05/26 09:06:49;;;;;;;62.80;18.07;;;;;;;23.24;50.29;95148.72;5972138;29;109132;-61
2023/05/26 09:10:22;;;;;;;55.60;16.50;;;;;;;23.22;50.42;95139.44;5972237;29;108598;-60
2023/05/26 09:13:26;;;;;;;51.70;16.67;;;;;;;23.21;50.37;95136.00;5963809;29;109192;-60
2023/05/26 09:16:30;;;;;;;52.47;14.87;;;;;;;23.21;50.60;95140.53;5972228;29;109331;-60
2023/05/26 09:19:34;;;;;;;40.73;14.50;;;;;;;23.21;50.55;95135.22;5971910;29;109155;-62
2023/05/26 09:22:39;;;;;;;36.73;13.80;;;;;;;23.23;50.57;95122.34;5962633;29;109312;-62
2023/05/26 09:25:45;;;;;;;60.90;16.43;;;;;;;23.22;50.58;95124.22;5971218;29;109394;-61
2023/05/26 09:28:49;;;;;;;92.70;24.23;;;;;;;23.27;50.36;95124.06;5972214;29;109039;-61
2023/05/26 09:31:53;;;;;;;110.00;27.00;;;;;;;23.28;50.58;95130.97;5971863;29;109223;-61
2023/05/26 09:34:58;;;;;;;151.97;31.67;;;;;;;23.30;50.56;95136.81;5961591;29;109113;-61
2023/05/26 09:38:04;;;;;;;174.50;36.70;;;;;;;23.30;50.35;95125.34;5972035;29;109014;-61
2023/05/26 09:41:08;;;;;;;244.57;45.20;;;;;;;23.32;50.31;95125.03;5972052;29;109323;-61
2023/05/26 09:44:13;;;;;;;283.80;46.50;;;;;;;23.30;50.31;95122.69;5971375;29;109091;-62
2023/05/26 09:47:21;;;;;;;256.73;43.83;;;;;;;23.27;50.23;95115.25;5961865;29;109544;-66
2023/05/26 09:50:25;;;;;;;240.17;44.50;;;;;;;23.29;50.28;95113.88;5971482;29;109114;-62
2023/05/26 09:53:28;;;;;;;188.20;40.43;;;;;;;23.29;50.18;95113.88;5971272;29;109221;-62
2023/05/26 09:56:35;;;;;;;198.30;40.57;;;;;;;23.31;50.10;95118.91;5965036;29;108863;-62
2023/05/26 09:59:40;;;;;;;171.43;38.10;;;;;;;23.29;49.75;95119.22;5970307;29;110068;-62
2023/05/26 10:02:44;;;;;;;126.53;30.97;;;;;;;23.29;49.23;95118.44;5971523;29;109405;-62
2023/05/26 10:05:49;;;;;;;147.87;32.17;;;;;;;23.28;49.58;95114.94;5971041;29;108983;-60
2023/05/26 10:08:57;;;;;;;299.40;50.77;;;;;;;23.28;49.75;95116.84;5960796;29;109336;-60
2023/05/26 10:12:05;;;;;;;468.70;67.13;;;;;;;23.24;50.09;95106.00;5971367;29;109113;-60
2023/05/26 10:15:13;;;;;;;476.83;87.20;;;;;;;23.17;50.75;95110.19;5971399;29;109177;-61
2023/05/26 10:18:17;;;;;;;473.37;99.53;;;;;;;23.14;50.88;95111.63;5971685;29;108995;-61
2023/05/26 10:21:25;;;;;;;479.87;93.20;;;;;;;23.10;51.19;95118.69;5961373;29;110123;-61
2023/05/26 10:24:33;;;;;;;401.80;87.03;;;;;;;23.07;50.91;95116.63;5971416;29;109270;-61
2023/05/26 10:27:45;;;;;;;356.93;80.90;;;;;;;23.07;50.73;95126.53;5971262;29;109129;-60
2023/05/26 10:30:48;;;;;;;304.93;73.63;;;;;;;23.04;51.57;95121.81;5961459;29;109076;-61
2023/05/26 10:33:51;;;;;;;300.27;67.43;;;;;;;23.02;51.73;95119.44;5970369;29;109167;-61
2023/05/26 10:37:01;;;;;;;282.23;60.37;;;;;;;22.98;51.68;95118.47;5971019;29;109399;-60
2023/05/26 10:40:06;;;;;;;266.37;57.50;;;;;;;22.95;52.26;95113.75;5970750;29;109065;-60
2023/05/26 10:43:18;;;;;;;232.57;53.20;;;;;;;22.92;52.20;95112.50;5959527;29;109117;-61
2023/05/26 10:46:21;;;;;;;187.03;48.13;;;;;;;22.86;52.39;95110.28;5948042;29;109447;-61
2023/05/26 10:49:25;;;;;;;181.13;42.77;;;;;;;22.86;52.19;95105.75;5947807;29;109463;-61
2023/05/26 10:52:28;;;;;;;138.97;37.00;;;;;;;22.83;52.59;95109.00;5959484;29;109320;-67
2023/05/26 10:55:45;;;;;;;122.83;31.13;;;;;;;22.81;52.75;95108.53;5959963;29;109161;-67
2023/05/26 10:58:51;;;;;;;111.00;32.60;;;;;;;22.79;52.71;95100.03;5969724;29;109100;-67
2023/05/26 11:01:54;;;;;;;100.70;28.57;;;;;;;22.77;52.84;95101.44;5970645;29;109125;-67
2023/05/26 11:04:57;;;;;;;98.27;24.60;;;;;;;22.77;52.82;95093.44;5959841;29;109082;-68
2023/05/26 11:08:01;;;;;;;74.03;21.87;;;;;;;22.76;53.17;95097.22;5969951;29;109226;-68
2023/05/26 11:11:06;;;;;;;86.77;21.80;;;;;;;22.69;52.27;95081.66;5969550;29;109495;-68
2023/05/26 11:14:12;;;;;;;69.13;17.30;;;;;;;22.68;52.54;95090.75;5969863;29;109189;-67
2023/05/26 11:17:19;;;;;;;31.10;12.00;;;;;;;22.66;52.12;95084.94;5959087;29;109458;-67
2023/05/26 11:20:24;;;;;;;39.40;13.10;;;;;;;22.65;52.80;95094.81;5970587;29;109020;-67
2023/05/26 11:23:27;;;;;;;30.97;10.80;;;;;;;22.63;52.01;95089.00;5969808;29;109143;-69
2023/05/26 11:26:32;;;;;;;32.00;11.40;;;;;;;22.63;52.24;95090.88;5970274;29;109744;-68
2023/05/26 11:29:37;;;;;;;23.70;9.70;;;;;;;22.64;52.48;95095.13;5959059;29;109082;-68
2023/05/26 11:32:45;;;;;;;31.63;10.43;;;;;;;22.68;52.74;95088.06;5969756;29;109146;-67
2023/05/26 11:35:48;;;;;;;26.43;10.60;;;;;;;22.68;52.75;95082.72;5970032;29;109543;-67
2023/05/26 11:38:56;;;;;;;24.70;10.90;;;;;;;22.66;52.97;95077.72;5961774;29;108917;-66
2023/05/26 11:42:07;;;;;;;17.73;9.07;;;;;;;22.69;52.87;95090.47;5968933;29;108885;-68
2023/05/26 11:45:12;;;;;;;19.80;10.13;;;;;;;22.68;53.33;95077.41;5970141;29;109968;-68
2023/05/26 11:48:15;;;;;;;18.20;8.90;;;;;;;22.69;53.07;95079.00;5969979;29;109025;-67
2023/05/26 11:51:19;;;;;;;51.43;12.40;;;;;;;22.70;52.90;95086.69;5959701;29;109150;-70
2023/05/26 11:54:23;;;;;;;78.33;14.80;;;;;;;22.72;52.92;95082.94;5969598;29;109094;-69
2023/05/26 11:57:30;;;;;;;90.77;16.70;;;;;;;22.68;53.45;95078.22;5970132;29;109296;-68
2023/05/26 12:00:38;;;;;;;90.13;15.83;;;;;;;22.72;53.47;95065.03;5969662;29;108823;-68
2023/05/26 12:03:44;;;;;;;81.83;16.53;;;;;;;22.72;53.46;95062.38;5959592;29;109425;-63
2023/05/26 12:06:48;;;;;;;58.60;12.73;;;;;;;22.70;53.00;95049.34;5969688;29;110712;-62
2023/05/26 12:10:03;;;;;;;80.70;13.10;;;;;;;22.70;52.93;95049.34;5973079;29;110154;-64
2023/05/26 12:13:06;;;;;;;156.00;20.77;;;;;;;22.72;52.76;95042.91;5963795;29;109125;-63
2023/05/26 12:16:22;;;;;;;179.73;20.73;;;;;;;22.71;52.48;95028.78;5972917;29;109125;-62
2023/05/26 12:19:26;;;;;;;151.07;18.27;;;;;;;22.71;53.00;95018.13;5973355;29;109062;-63
2023/05/26 12:22:29;;;;;;;204.73;24.47;;;;;;;22.71;52.21;95018.13;5973251;29;109119;-63
2023/05/26 12:25:33;;;;;;;157.07;22.57;;;;;;;22.73;52.79;95015.94;5962826;29;110134;-64
2023/05/26 12:28:40;;;;;;;137.03;19.60;;;;;;;22.73;52.18;95026.59;5973198;29;109237;-63
2023/05/26 12:31:46;;;;;;;126.97;17.10;;;;;;;22.75;52.72;95018.28;5973082;29;109405;-64
2023/05/26 12:34:49;;;;;;;104.20;16.10;;;;;;;22.73;51.88;95005.25;5972969;29;109212;-63
2023/05/26 12:37:52;;;;;;;90.87;13.77;;;;;;;22.73;51.92;95001.81;5962700;29;109858;-64
2023/05/26 12:40:56;;;;;;;80.87;13.70;;;;;;;22.73;51.96;94993.81;5973086;29;109054;-63
2023/05/26 12:44:00;;;;;;;74.77;13.83;;;;;;;22.74;52.35;94995.38;5973559;29;109566;-63
2023/05/26 12:47:05;;;;;;;65.50;11.80;;;;;;;22.72;52.07;94985.00;5966630;29;109420;-65
2023/05/26 12:50:10;;;;;;;54.50;11.33;;;;;;;22.71;52.15;94994.09;5971635;29;110604;-63
2023/05/26 12:53:13;;;;;;;44.30;10.50;;;;;;;22.71;51.72;94994.09;5972982;29;109061;-63
2023/05/26 12:56:17;;;;;;;38.50;9.20;;;;;;;22.72;51.23;94993.00;5972883;29;109094;-63
2023/05/26 12:59:20;;;;;;;27.50;8.60;;;;;;;22.71;51.43;94996.78;5962764;29;111490;-63
2023/05/26 13:02:25;;;;;;;25.67;6.87;;;;;;;22.68;50.90;95003.53;5972272;29;109114;-63
2023/05/26 13:05:29;;;;;;;29.13;7.37;;;;;;;22.67;50.54;94991.25;5972460;29;109119;-63
2023/05/26 13:08:33;;;;;;;27.97;7.30;;;;;;;22.66;50.73;94989.69;5972689;29;109419;-63
2023/05/26 13:11:36;;;;;;;19.70;5.97;;;;;;;22.68;50.14;94987.53;5962619;29;111908;-63
2023/05/26 13:14:40;;;;;;;19.33;6.07;;;;;;;22.69;50.03;94980.31;5963557;29;109309;-65
2023/05/26 13:17:46;;;;;;;21.63;5.87;;;;;;;22.71;49.28;94972.78;5972644;29;108951;-65
2023/05/26 13:20:49;;;;;;;15.80;6.90;;;;;;;22.72;49.56;94976.22;5966042;29;109013;-65
2023/05/26 13:23:55;;;;;;;13.40;5.63;;;;;;;22.73;49.46;94975.13;5966743;29;109320;-64
2023/05/26 13:26:59;;;;;;;12.20;6.10;;;;;;;22.71;49.06;94975.44;5972667;29;110297;-64
2023/05/26 13:30:02;;;;;;;7.87;4.27;;;;;;;22.72;49.36;94976.22;5972254;29;109105;-66
2023/05/26 13:33:07;;;;;;;20.27;5.47;;;;;;;22.73;49.53;94975.13;5961311;29;109115;-64
2023/05/26 13:36:11;;;;;;;9.57;4.37;;;;;;;22.73;49.42;94975.13;5972141;29;109099;-64
2023/05/26 13:39:15;;;;;;;10.47;5.07;;;;;;;22.74;49.57;94968.69;5972117;29;109066;-63
2023/05/26 13:42:18;;;;;;;7.80;4.83;;;;;;;22.76;49.77;94971.84;5972049;29;109552;-64
2023/05/26 13:45:21;;;;;;;10.30;5.87;;;;;;;22.75;49.78;94967.59;5961218;29;109112;-64
2023/05/26 13:48:26;;;;;;;10.83;6.07;;;;;;;22.74;49.78;94966.03;5971748;29;109081;-64
2023/05/26 13:51:29;;;;;;;13.83;5.80;;;;;;;22.74;49.73;94979.38;5971966;29;109032;-64
2023/05/26 13:54:32;;;;;;;7.60;5.57;;;;;;;22.74;49.77;94974.03;5970836;29;109240;-64
2023/05/26 13:57:37;;;;;;;6.43;4.97;;;;;;;22.73;49.67;94977.78;5964511;29;110726;-64
2023/05/26 14:00:40;;;;;;;13.40;6.33;;;;;;;22.72;49.63;94976.22;5971959;29;109315;-64
2023/05/26 14:03:46;;;;;;;6.80;5.40;;;;;;;22.70;49.57;94974.66;5971460;29;108904;-64
2023/05/26 14:06:50;;;;;;;8.53;5.50;;;;;;;22.69;49.81;94973.09;5961233;29;108923;-64